28NC weather

Balloonport of Greensboro Balloonport
Greensboro, North Carolina, United States

Public forecast

Using degrees Fahrenheit for public forecast. Weather courtesy of forecast.io.

METAR (pilot weather report)

Closest report is Piedmont Triad International Airport, 10.3 nm (19.0 km) NW. Retrieved 2019/09/23 05:54 UTC (17 minutes ago):

KGSO 230554Z 22006KT 10SM SCT250 21/16 A3011 RMK AO2 SLP185 T02110156 10267 20206 58005

TAF (pilot weather forecast)

Closest forecast is Piedmont Triad International Airport, 10.3 nm (19.0 km) NW. Retrieved 2019/09/23 06:42 UTC (0 seconds ago):

TAF KGSO 230539Z 2306/2406 21006KT P6SM SKC FM231500 25007KT P6SM FEW250 FM232300 27004KT P6SM BKN060